createdAt,value
2023-03-31T00:01:08.425Z,15.07
2023-03-31T00:03:39.150Z,12.77
2023-03-31T00:06:04.301Z,14.02
2023-03-31T00:08:30.843Z,14.88
2023-03-31T00:10:56.106Z,12.52
2023-03-31T00:13:20.724Z,16.23
2023-03-31T00:15:46.250Z,16.23
2023-03-31T00:18:10.792Z,16.63
2023-03-31T00:20:38.212Z,17.75
2023-03-31T00:23:03.017Z,15.18
2023-03-31T00:25:27.550Z,13.23
2023-03-31T00:27:52.889Z,13.88
2023-03-31T00:30:17.948Z,14.77
2023-03-31T00:32:42.606Z,18.75
2023-03-31T00:35:08.904Z,15.25
2023-03-31T00:37:34.946Z,12.75
2023-03-31T00:39:59.908Z,16.25
2023-03-31T00:42:24.645Z,14.50
2023-03-31T00:45:34.034Z,13.57
2023-03-31T00:48:06.052Z,17.80
2023-03-31T00:50:36.234Z,13.15
2023-03-31T00:53:07.563Z,14.00
2023-03-31T00:55:38.812Z,17.33
2023-03-31T00:58:04.833Z,14.23
2023-03-31T01:00:30.298Z,17.80
2023-03-31T01:02:59.327Z,14.02
2023-03-31T01:05:28.850Z,16.13
2023-03-31T01:07:54.365Z,13.90
2023-03-31T01:10:20.652Z,18.38
2023-03-31T01:12:50.327Z,13.95
2023-03-31T01:15:16.899Z,12.25
2023-03-31T01:17:45.022Z,14.18
2023-03-31T01:20:19.369Z,14.77
2023-03-31T01:23:17.408Z,15.38
2023-03-31T01:26:09.366Z,13.68
2023-03-31T01:28:40.263Z,14.07
2023-03-31T01:31:30.423Z,16.00
2023-03-31T01:34:32.645Z,14.23
2023-03-31T01:37:31.628Z,16.20
2023-03-31T01:40:37.985Z,15.90
2023-03-31T01:43:11.330Z,15.80
2023-03-31T01:45:52.961Z,13.65
2023-03-31T01:48:21.354Z,15.20
2023-03-31T01:50:51.965Z,14.25
2023-03-31T01:53:22.987Z,16.20
2023-03-31T01:55:57.371Z,14.73
2023-03-31T01:58:27.567Z,15.73
2023-03-31T02:00:57.109Z,14.80
2023-03-31T02:03:25.830Z,16.20
2023-03-31T02:05:54.488Z,18.77
2023-03-31T02:08:24.231Z,13.63
2023-03-31T02:10:50.423Z,19.63
2023-03-31T02:13:17.910Z,14.55
2023-03-31T02:15:49.848Z,15.60
2023-03-31T02:18:18.715Z,14.77
2023-03-31T02:20:46.371Z,14.77
2023-03-31T02:23:13.395Z,17.30
2023-03-31T02:25:46.292Z,15.02
2023-03-31T02:28:15.460Z,13.80
2023-03-31T02:30:48.932Z,17.63
2023-03-31T02:33:13.553Z,15.82
2023-03-31T02:35:38.873Z,17.80
2023-03-31T02:38:06.856Z,17.20
2023-03-31T02:40:31.519Z,15.32
2023-03-31T02:42:57.276Z,16.45
2023-03-31T02:45:43.553Z,15.23
2023-03-31T02:48:14.308Z,15.70
2023-03-31T02:50:56.825Z,16.08
2023-03-31T02:53:29.124Z,16.88
2023-03-31T02:56:07.735Z,15.32
2023-03-31T02:58:53.136Z,31.17
2023-03-31T03:01:49.844Z,16.25
2023-03-31T03:04:36.927Z,17.70
2023-03-31T03:07:06.963Z,29.50
2023-03-31T03:09:42.060Z,30.48
2023-03-31T03:12:14.517Z,31.08
2023-03-31T03:14:45.726Z,23.05
2023-03-31T03:19:37.846Z,19.63
2023-03-31T03:22:02.564Z,21.58
2023-03-31T03:24:29.896Z,18.02
2023-03-31T03:26:55.401Z,18.60
2023-03-31T03:29:20.025Z,21.75
2023-03-31T03:31:44.638Z,31.38
2023-03-31T03:34:09.704Z,19.08
2023-03-31T03:36:35.801Z,20.15
2023-03-31T03:39:00.406Z,20.73
2023-03-31T03:41:25.001Z,15.02
2023-03-31T03:43:49.617Z,20.98
2023-03-31T03:46:14.165Z,16.98
2023-03-31T03:48:40.016Z,22.02
2023-03-31T03:51:04.915Z,16.50
2023-03-31T03:53:31.041Z,21.02
2023-03-31T03:55:55.619Z,22.02
2023-03-31T03:58:20.358Z,19.90
2023-03-31T04:00:45.919Z,16.98
2023-03-31T04:03:12.282Z,30.50
2023-03-31T04:05:37.290Z,17.95
2023-03-31T04:08:01.858Z,19.55
2023-03-31T04:10:27.887Z,14.80
2023-03-31T04:12:52.509Z,17.95
2023-03-31T04:15:17.485Z,20.75
2023-03-31T04:17:42.148Z,17.05
2023-03-31T04:20:11.765Z,18.48
2023-03-31T04:22:41.002Z,23.45
2023-03-31T04:25:15.010Z,19.00
2023-03-31T04:27:46.709Z,18.52
2023-03-31T04:30:12.660Z,17.75
2023-03-31T04:32:37.185Z,16.65
2023-03-31T04:35:03.791Z,19.88
2023-03-31T04:37:34.722Z,22.30
2023-03-31T04:40:03.921Z,22.17
2023-03-31T04:42:28.653Z,17.80
2023-03-31T04:44:54.667Z,20.42
2023-03-31T04:47:19.166Z,18.20
2023-03-31T04:49:43.739Z,19.73
2023-03-31T04:52:08.182Z,17.90
2023-03-31T04:54:32.795Z,24.02
2023-03-31T04:56:57.421Z,20.17
2023-03-31T04:59:22.084Z,23.33
2023-03-31T05:01:48.220Z,17.33
2023-03-31T05:04:12.881Z,16.83
2023-03-31T05:06:37.346Z,16.70
2023-03-31T05:09:02.176Z,18.75
2023-03-31T05:11:27.590Z,24.23
2023-03-31T05:13:52.209Z,16.52
2023-03-31T05:16:17.562Z,22.05
2023-03-31T05:18:43.821Z,19.58
2023-03-31T05:21:13.142Z,22.75
2023-03-31T05:23:37.668Z,20.42
2023-03-31T05:26:02.012Z,17.67
2023-03-31T05:28:26.601Z,17.35
2023-03-31T05:30:51.231Z,18.88
2023-03-31T05:33:15.891Z,19.50
2023-03-31T05:35:41.856Z,21.05
2023-03-31T05:38:06.610Z,16.80
2023-03-31T05:40:31.078Z,15.07
2023-03-31T05:42:55.575Z,24.27
2023-03-31T05:45:20.138Z,19.55
2023-03-31T05:47:44.664Z,18.35
2023-03-31T05:50:09.879Z,20.15
2023-03-31T05:52:36.626Z,20.67
2023-03-31T05:55:01.060Z,17.20
2023-03-31T05:57:26.130Z,22.67
2023-03-31T05:59:50.600Z,17.38
2023-03-31T06:02:15.647Z,21.20
2023-03-31T06:04:40.194Z,21.02
2023-03-31T06:07:05.652Z,23.05
2023-03-31T06:09:31.578Z,21.80
2023-03-31T06:11:56.358Z,25.40
2023-03-31T06:14:20.824Z,21.00
2023-03-31T06:16:47.752Z,24.15
2023-03-31T06:19:12.202Z,22.73
2023-03-31T06:21:36.637Z,28.42
2023-03-31T06:24:01.212Z,22.98
2023-03-31T06:26:27.548Z,21.10
2023-03-31T06:28:52.131Z,24.02
2023-03-31T06:31:19.032Z,22.08
2023-03-31T06:33:44.740Z,26.58
2023-03-31T06:36:10.232Z,25.25
2023-03-31T06:38:35.278Z,22.02
2023-03-31T06:40:59.942Z,24.73
2023-03-31T06:43:25.973Z,21.63
2023-03-31T06:45:52.565Z,23.85
2023-03-31T06:48:18.428Z,22.10
2023-03-31T06:50:43.438Z,24.73
2023-03-31T06:53:07.927Z,26.10
2023-03-31T06:55:33.897Z,25.52
2023-03-31T06:57:58.552Z,25.30
2023-03-31T07:00:26.036Z,24.17
2023-03-31T07:02:50.741Z,30.75
2023-03-31T07:05:15.860Z,23.90
2023-03-31T07:07:40.393Z,24.55
2023-03-31T07:10:05.378Z,24.08
2023-03-31T07:12:30.578Z,28.33
2023-03-31T07:14:55.109Z,25.70
2023-03-31T07:17:21.192Z,26.20
2023-03-31T07:19:48.286Z,24.08
2023-03-31T07:22:12.685Z,25.15
2023-03-31T07:24:40.014Z,28.00
2023-03-31T07:27:06.680Z,26.10
2023-03-31T07:29:31.695Z,28.75
2023-03-31T07:31:56.439Z,23.90
2023-03-31T07:34:22.382Z,30.95
2023-03-31T07:36:46.922Z,27.30
2023-03-31T07:39:11.341Z,30.95
2023-03-31T07:41:36.098Z,29.42
2023-03-31T07:44:00.696Z,28.67
2023-03-31T07:46:26.749Z,30.58
2023-03-31T07:48:52.655Z,26.88
2023-03-31T07:51:21.622Z,27.35
2023-03-31T07:53:46.515Z,27.23
2023-03-31T07:56:11.308Z,33.38
2023-03-31T07:58:36.288Z,28.42
2023-03-31T08:01:01.152Z,28.73
2023-03-31T08:03:25.774Z,35.00
2023-03-31T08:05:52.872Z,25.70
2023-03-31T08:08:18.886Z,31.48
2023-03-31T08:10:43.325Z,27.73
2023-03-31T08:13:07.857Z,29.30
2023-03-31T08:15:32.357Z,28.83
2023-03-31T08:17:56.937Z,29.15
2023-03-31T08:20:21.489Z,29.13
2023-03-31T08:22:46.229Z,30.17
2023-03-31T08:25:14.465Z,30.38
2023-03-31T08:27:42.602Z,27.58
2023-03-31T08:30:08.285Z,29.17
2023-03-31T08:32:35.688Z,31.02
2023-03-31T08:35:00.879Z,28.60
2023-03-31T08:37:26.014Z,30.10
2023-03-31T08:39:50.441Z,28.13
2023-03-31T08:42:19.817Z,28.45
2023-03-31T08:44:49.218Z,26.17
2023-03-31T08:47:22.824Z,26.38
2023-03-31T08:49:52.606Z,24.52
2023-03-31T08:52:21.930Z,28.23
2023-03-31T08:54:50.808Z,26.13
2023-03-31T08:57:22.084Z,26.77
2023-03-31T08:59:47.441Z,26.58
2023-03-31T09:02:21.188Z,26.52
2023-03-31T09:05:00.994Z,22.65
2023-03-31T09:07:45.593Z,24.10
2023-03-31T09:10:28.580Z,26.15
2023-03-31T09:13:01.638Z,23.33
2023-03-31T09:15:29.583Z,28.45
2023-03-31T09:17:57.928Z,20.90
2023-03-31T09:20:28.739Z,21.08
2023-03-31T09:22:58.928Z,17.80
2023-03-31T09:25:28.206Z,22.25
2023-03-31T09:27:57.239Z,15.35
2023-03-31T09:30:27.252Z,15.02
2023-03-31T09:32:56.813Z,15.43
2023-03-31T09:35:27.588Z,18.25
2023-03-31T09:37:55.293Z,14.45
2023-03-31T09:40:22.351Z,17.65
2023-03-31T09:42:48.844Z,14.77
2023-03-31T09:45:19.063Z,16.40
2023-03-31T09:47:46.364Z,16.33
2023-03-31T09:50:11.705Z,12.70
2023-03-31T09:52:39.153Z,18.13
2023-03-31T09:55:06.425Z,18.13
2023-03-31T09:57:34.091Z,17.63
2023-03-31T10:00:13.738Z,15.32
2023-03-31T10:02:41.611Z,17.88
2023-03-31T10:05:08.424Z,17.48
2023-03-31T10:07:34.012Z,15.63
2023-03-31T10:09:59.009Z,17.42
2023-03-31T10:12:26.698Z,18.15
2023-03-31T10:14:53.401Z,20.58
2023-03-31T10:17:19.422Z,16.85
2023-03-31T10:19:52.391Z,20.90
2023-03-31T10:22:18.441Z,22.77
2023-03-31T10:24:46.366Z,19.55
2023-03-31T10:27:23.004Z,23.25
2023-03-31T10:29:52.714Z,19.40
2023-03-31T10:32:25.958Z,17.25
2023-03-31T10:34:52.725Z,18.77
2023-03-31T10:37:20.958Z,21.70
2023-03-31T10:39:47.688Z,17.77
2023-03-31T10:42:12.228Z,19.75
2023-03-31T10:44:38.533Z,22.40
2023-03-31T10:47:17.507Z,21.15
2023-03-31T10:49:44.109Z,16.63
2023-03-31T10:52:20.232Z,19.42
2023-03-31T10:54:49.095Z,20.38
2023-03-31T10:57:17.170Z,23.88
2023-03-31T10:59:53.859Z,22.90
2023-03-31T11:03:04.874Z,19.65
2023-03-31T11:05:32.986Z,20.95
2023-03-31T11:08:13.043Z,21.75
2023-03-31T11:10:58.857Z,24.77
2023-03-31T11:13:27.964Z,26.25
2023-03-31T11:15:58.671Z,21.73
2023-03-31T11:18:41.317Z,19.60
2023-03-31T11:21:17.053Z,19.17
2023-03-31T11:23:47.779Z,26.48
2023-03-31T11:26:17.301Z,18.42
2023-03-31T11:28:59.055Z,20.48
2023-03-31T11:31:34.960Z,23.38
2023-03-31T11:34:29.393Z,24.02
2023-03-31T11:37:17.247Z,22.13
2023-03-31T11:39:53.285Z,21.55
2023-03-31T11:42:21.616Z,20.10
2023-03-31T11:44:53.085Z,19.55
2023-03-31T11:47:21.077Z,22.45
2023-03-31T11:49:51.253Z,18.75
2023-03-31T11:52:17.997Z,16.92
2023-03-31T11:54:49.197Z,17.42
2023-03-31T11:57:21.018Z,16.08
2023-03-31T11:59:48.638Z,13.43
2023-03-31T12:02:19.154Z,14.40
2023-03-31T12:04:49.999Z,16.88
2023-03-31T12:07:25.082Z,23.65
2023-03-31T12:09:56.913Z,13.82
2023-03-31T12:12:23.985Z,11.75
2023-03-31T12:14:53.142Z,12.40
2023-03-31T12:17:21.042Z,11.30
2023-03-31T12:19:50.062Z,10.43
2023-03-31T12:22:20.234Z,11.10
2023-03-31T12:24:44.725Z,12.27
2023-03-31T12:27:18.724Z,10.50
2023-03-31T12:29:46.727Z,7.50
2023-03-31T12:32:16.222Z,7.18
2023-03-31T12:34:47.225Z,10.23
2023-03-31T12:37:37.186Z,9.60
2023-03-31T12:42:50.940Z,6.80
2023-03-31T12:45:25.079Z,6.70
2023-03-31T12:48:08.890Z,5.75
2023-03-31T12:50:46.810Z,8.00
2023-03-31T12:53:22.686Z,9.27
2023-03-31T12:55:52.069Z,6.45
2023-03-31T12:58:42.902Z,7.72
2023-03-31T13:01:16.821Z,8.80
2023-03-31T13:04:12.644Z,7.82
2023-03-31T13:06:57.884Z,8.05
2023-03-31T13:09:44.985Z,11.15
2023-03-31T13:12:11.018Z,7.75
2023-03-31T13:14:41.947Z,7.72
2023-03-31T13:17:17.143Z,10.27
2023-03-31T13:19:43.128Z,9.95
2023-03-31T13:22:09.172Z,5.35
2023-03-31T13:24:35.266Z,7.70
2023-03-31T13:27:01.440Z,8.73
2023-03-31T13:29:28.736Z,7.30
2023-03-31T13:32:23.673Z,9.52
2023-03-31T13:34:58.611Z,8.13
2023-03-31T13:37:45.269Z,10.63
2023-03-31T13:40:32.327Z,9.75
2023-03-31T13:43:27.354Z,5.13
2023-03-31T13:46:24.077Z,7.22
2023-03-31T13:49:04.968Z,4.72
2023-03-31T13:51:51.890Z,8.38
2023-03-31T13:55:00.875Z,6.40
2023-03-31T13:57:45.530Z,6.70
2023-03-31T14:00:22.901Z,6.85
2023-03-31T14:03:14.070Z,10.93
2023-03-31T14:05:43.584Z,6.78
2023-03-31T14:08:12.909Z,5.68
2023-03-31T14:10:40.622Z,15.43
2023-03-31T14:13:13.287Z,8.32
2023-03-31T14:15:45.327Z,6.03
2023-03-31T14:18:17.100Z,6.38
2023-03-31T14:20:57.813Z,10.32
2023-03-31T14:23:34.266Z,6.18
2023-03-31T14:26:07.389Z,7.00
2023-03-31T14:28:56.755Z,6.57
2023-03-31T14:31:35.451Z,3.97
2023-03-31T14:34:20.885Z,4.82
2023-03-31T14:36:59.508Z,6.90
2023-03-31T14:39:29.748Z,10.13
2023-03-31T14:41:57.805Z,6.82
2023-03-31T14:44:26.984Z,5.82
2023-03-31T14:46:57.689Z,6.10
2023-03-31T14:49:26.417Z,6.13
2023-03-31T14:51:54.479Z,3.17
2023-03-31T14:54:20.637Z,6.03
2023-03-31T14:56:48.778Z,6.38
2023-03-31T14:59:20.060Z,5.20
2023-03-31T15:01:47.917Z,7.78
2023-03-31T15:04:14.631Z,4.95
2023-03-31T15:06:40.077Z,10.80
2023-03-31T15:09:06.098Z,6.57
2023-03-31T15:11:31.941Z,3.50
2023-03-31T15:14:04.962Z,4.10
2023-03-31T15:16:35.011Z,4.45
2023-03-31T15:19:04.573Z,6.03
2023-03-31T15:21:32.805Z,7.05
2023-03-31T15:23:58.289Z,5.38
2023-03-31T15:26:40.577Z,5.18
2023-03-31T15:29:08.750Z,13.52
2023-03-31T15:31:33.322Z,19.88
2023-03-31T15:33:58.411Z,8.40
2023-03-31T15:36:23.752Z,4.53
2023-03-31T15:38:49.104Z,6.28
2023-03-31T15:41:14.854Z,4.35
2023-03-31T15:43:50.816Z,11.88
2023-03-31T15:46:21.220Z,7.93
2023-03-31T15:48:53.076Z,5.35
2023-03-31T15:51:21.446Z,4.72
2023-03-31T15:53:48.179Z,7.07
2023-03-31T15:56:27.230Z,5.15
2023-03-31T15:58:59.278Z,7.70
2023-03-31T16:01:25.313Z,11.63
2023-03-31T16:03:53.653Z,7.30
2023-03-31T16:06:23.825Z,5.95
2023-03-31T16:08:52.204Z,3.38
2023-03-31T16:11:21.260Z,5.40
2023-03-31T16:13:49.333Z,7.50
2023-03-31T16:16:18.953Z,4.55
2023-03-31T16:18:53.842Z,4.60
2023-03-31T16:21:26.449Z,7.53
2023-03-31T16:23:55.249Z,5.88
2023-03-31T16:26:23.398Z,4.55
2023-03-31T16:28:52.362Z,9.07
2023-03-31T16:31:34.667Z,4.75
2023-03-31T16:33:59.631Z,8.55
2023-03-31T16:36:24.367Z,7.28
2023-03-31T16:38:49.214Z,6.60
2023-03-31T16:41:15.830Z,7.93
2023-03-31T16:43:40.453Z,11.50
2023-03-31T16:46:05.147Z,13.77
2023-03-31T16:48:36.011Z,6.63
2023-03-31T16:51:04.316Z,7.70
2023-03-31T16:53:36.935Z,9.10
2023-03-31T16:56:08.583Z,7.93
2023-03-31T16:58:34.013Z,6.70
2023-03-31T17:00:59.446Z,14.35
2023-03-31T17:03:36.795Z,8.48
2023-03-31T17:06:15.288Z,7.28
2023-03-31T17:08:40.854Z,9.27
2023-03-31T17:11:08.256Z,11.95
2023-03-31T17:13:33.823Z,9.65
2023-03-31T17:16:08.788Z,10.55
2023-03-31T17:18:42.014Z,10.63
2023-03-31T17:21:10.810Z,12.80
2023-03-31T17:23:36.384Z,15.65
2023-03-31T17:26:01.101Z,9.40
2023-03-31T17:28:25.822Z,11.20
2023-03-31T17:30:50.447Z,22.23
2023-03-31T17:33:18.100Z,16.45
2023-03-31T17:35:42.750Z,10.98
2023-03-31T17:38:13.045Z,12.15
2023-03-31T17:40:40.525Z,10.40
2023-03-31T17:43:10.235Z,12.13
2023-03-31T17:45:35.070Z,14.07
2023-03-31T17:48:00.287Z,22.92
2023-03-31T17:50:24.864Z,21.17
2023-03-31T17:52:49.787Z,23.95
2023-03-31T17:55:15.729Z,25.25
2023-03-31T17:57:40.733Z,21.50
2023-03-31T18:00:09.179Z,21.35
2023-03-31T18:02:37.821Z,19.58
2023-03-31T18:05:02.577Z,20.58
2023-03-31T18:07:28.522Z,25.45
2023-03-31T18:09:53.357Z,21.08
2023-03-31T18:12:20.681Z,24.35
2023-03-31T18:14:48.926Z,24.75
2023-03-31T18:17:15.106Z,25.17
2023-03-31T18:19:39.741Z,21.83
2023-03-31T18:22:04.277Z,21.92
2023-03-31T18:24:29.104Z,25.50
2023-03-31T18:26:53.661Z,27.77
2023-03-31T18:29:19.634Z,24.73
2023-03-31T18:31:44.224Z,25.65
2023-03-31T18:34:09.143Z,25.20
2023-03-31T18:36:34.508Z,27.05
2023-03-31T18:39:00.490Z,29.25
2023-03-31T18:41:25.585Z,27.45
2023-03-31T18:43:55.794Z,30.52
2023-03-31T18:48:46.427Z,30.63
2023-03-31T18:51:11.062Z,28.15
2023-03-31T18:53:36.200Z,24.10
2023-03-31T18:56:01.797Z,22.73
2023-03-31T18:58:28.043Z,28.23
2023-03-31T19:00:56.943Z,23.15
2023-03-31T19:03:23.237Z,25.08
2023-03-31T19:05:48.175Z,28.05
2023-03-31T19:08:14.417Z,28.92
2023-03-31T19:10:41.852Z,23.38
2023-03-31T19:13:07.991Z,20.52
2023-03-31T19:15:33.523Z,27.20
2023-03-31T19:17:58.107Z,25.88
2023-03-31T19:20:24.349Z,29.05
2023-03-31T19:22:51.078Z,30.15
2023-03-31T19:25:16.644Z,32.03
2023-03-31T19:27:44.756Z,31.95
2023-03-31T19:30:15.024Z,33.25
2023-03-31T19:32:39.977Z,31.45
2023-03-31T19:35:05.922Z,32.40
2023-03-31T19:37:34.888Z,29.67
2023-03-31T19:39:59.481Z,31.20
2023-03-31T19:42:28.045Z,29.10
2023-03-31T19:44:53.105Z,26.42
2023-03-31T19:47:20.114Z,26.08
2023-03-31T19:49:44.851Z,26.88
2023-03-31T19:52:09.435Z,25.40
2023-03-31T19:54:35.472Z,27.00
2023-03-31T19:57:00.121Z,30.13
2023-03-31T19:59:24.609Z,24.83
2023-03-31T20:01:49.295Z,25.73
2023-03-31T20:04:17.274Z,27.65
2023-03-31T20:06:41.863Z,30.17
2023-03-31T20:09:07.255Z,28.38
2023-03-31T20:11:33.610Z,28.70
2023-03-31T20:14:00.747Z,24.45
2023-03-31T20:16:27.555Z,27.38
2023-03-31T20:18:54.067Z,24.25
2023-03-31T20:21:20.678Z,31.25
2023-03-31T20:23:46.598Z,28.63
2023-03-31T20:26:13.286Z,29.77
2023-03-31T20:28:40.071Z,25.80
2023-03-31T20:31:08.725Z,31.02
2023-03-31T20:33:33.328Z,29.55
2023-03-31T20:36:06.371Z,29.92
2023-03-31T20:38:31.103Z,24.98
2023-03-31T20:40:56.126Z,24.35
2023-03-31T20:43:20.694Z,24.25
2023-03-31T20:45:46.911Z,24.23
2023-03-31T20:48:11.421Z,22.23
2023-03-31T20:50:39.465Z,23.30
2023-03-31T20:53:04.696Z,30.17
2023-03-31T20:55:29.487Z,31.95
2023-03-31T20:57:54.259Z,29.52
2023-03-31T21:00:19.149Z,28.60
2023-03-31T21:02:45.202Z,34.78
2023-03-31T21:05:10.676Z,31.45
2023-03-31T21:07:35.385Z,36.30
2023-03-31T21:10:00.713Z,36.17
2023-03-31T21:12:25.302Z,30.92
2023-03-31T21:14:50.115Z,40.20
2023-03-31T21:17:14.672Z,35.63
2023-03-31T21:19:40.678Z,33.13
2023-03-31T21:22:05.278Z,27.65
2023-03-31T21:24:29.797Z,31.70
2023-03-31T21:26:54.306Z,26.40
2023-03-31T21:29:18.895Z,32.25
2023-03-31T21:31:45.032Z,31.63
2023-03-31T21:34:09.604Z,32.83
2023-03-31T21:36:35.518Z,26.65
2023-03-31T21:39:00.002Z,26.77
2023-03-31T21:41:28.080Z,28.98
2023-03-31T21:43:53.634Z,30.75
2023-03-31T21:46:19.710Z,32.25
2023-03-31T21:48:44.456Z,28.17
2023-03-31T21:51:08.866Z,32.58
2023-03-31T21:53:34.988Z,30.52
2023-03-31T21:56:00.050Z,32.60
2023-03-31T21:58:28.780Z,36.45
2023-03-31T22:00:53.547Z,33.25
2023-03-31T22:03:27.034Z,27.70
2023-03-31T22:05:52.827Z,38.55
2023-03-31T22:08:17.209Z,34.97
2023-03-31T22:10:43.717Z,39.63
2023-03-31T22:13:08.307Z,41.70
2023-03-31T22:15:33.023Z,33.80
2023-03-31T22:17:57.767Z,38.30
2023-03-31T22:20:22.470Z,44.10
2023-03-31T22:22:47.430Z,42.45
2023-03-31T22:25:11.971Z,41.28
2023-03-31T22:27:38.868Z,45.50
2023-03-31T22:30:03.523Z,39.35
2023-03-31T22:32:28.863Z,42.60
2023-03-31T22:34:53.439Z,41.92
2023-03-31T22:37:18.009Z,41.90
2023-03-31T22:39:42.545Z,41.55
2023-03-31T22:42:07.621Z,41.55
2023-03-31T22:44:33.628Z,39.15
2023-03-31T22:46:58.327Z,44.83
2023-03-31T22:49:22.880Z,41.83
2023-03-31T22:51:47.639Z,45.72
2023-03-31T22:54:15.040Z,44.20
2023-03-31T22:56:39.461Z,38.20
2023-03-31T22:59:03.969Z,40.00
2023-03-31T23:01:30.191Z,39.05
2023-03-31T23:03:55.811Z,43.47
2023-03-31T23:06:20.573Z,39.35
2023-03-31T23:08:48.660Z,37.63
2023-03-31T23:11:14.649Z,45.53
2023-03-31T23:13:39.770Z,49.33
2023-03-31T23:16:06.858Z,45.90
2023-03-31T23:18:32.897Z,48.30
2023-03-31T23:20:57.542Z,48.47
2023-03-31T23:23:22.147Z,50.10
2023-03-31T23:25:46.704Z,42.40
2023-03-31T23:28:11.252Z,35.72
2023-03-31T23:30:35.793Z,35.58
2023-03-31T23:33:00.542Z,32.50
2023-03-31T23:35:26.481Z,36.40
2023-03-31T23:37:51.056Z,34.03
2023-03-31T23:40:15.806Z,36.20
2023-03-31T23:42:40.278Z,29.65
2023-03-31T23:45:05.082Z,38.83
2023-03-31T23:47:30.020Z,36.70
2023-03-31T23:49:56.545Z,36.70
2023-03-31T23:52:22.921Z,38.58
2023-03-31T23:54:47.471Z,39.33
2023-03-31T23:57:12.043Z,33.78
2023-03-31T23:59:36.814Z,28.52
